sensor_id;sensor_type;location;lat;lon;timestamp;P1;durP1;ratioP1;P2;durP2;ratioP2
30519;SDS011;17300;50.374;8.006;2023-08-21T00:00:07;5.85;;;5.25;;
30519;SDS011;17300;50.374;8.006;2023-08-21T00:02:35;5.53;;;5.13;;
30519;SDS011;17300;50.374;8.006;2023-08-21T00:05:02;5.88;;;5.28;;
30519;SDS011;17300;50.374;8.006;2023-08-21T00:07:29;5.50;;;5.00;;
30519;SDS011;17300;50.374;8.006;2023-08-21T00:09:56;5.35;;;4.95;;
30519;SDS011;17300;50.374;8.006;2023-08-21T00:12:22;5.25;;;4.80;;
30519;SDS011;17300;50.374;8.006;2023-08-21T00:14:49;5.22;;;4.82;;
30519;SDS011;17300;50.374;8.006;2023-08-21T00:17:16;5.00;;;4.65;;
30519;SDS011;17300;50.374;8.006;2023-08-21T00:19:44;4.75;;;4.45;;
30519;SDS011;17300;50.374;8.006;2023-08-21T00:22:10;5.30;;;4.82;;
30519;SDS011;17300;50.374;8.006;2023-08-21T00:24:37;5.70;;;5.20;;
30519;SDS011;17300;50.374;8.006;2023-08-21T00:27:04;5.40;;;4.90;;
30519;SDS011;17300;50.374;8.006;2023-08-21T00:29:31;6.22;;;4.47;;
30519;SDS011;17300;50.374;8.006;2023-08-21T00:31:57;5.45;;;5.05;;
30519;SDS011;17300;50.374;8.006;2023-08-21T00:34:24;5.32;;;4.93;;
30519;SDS011;17300;50.374;8.006;2023-08-21T00:36:52;4.72;;;4.35;;
30519;SDS011;17300;50.374;8.006;2023-08-21T00:39:18;5.10;;;4.60;;
30519;SDS011;17300;50.374;8.006;2023-08-21T00:41:45;5.50;;;5.00;;
30519;SDS011;17300;50.374;8.006;2023-08-21T00:44:12;5.72;;;4.78;;
30519;SDS011;17300;50.374;8.006;2023-08-21T00:46:38;5.05;;;4.65;;
30519;SDS011;17300;50.374;8.006;2023-08-21T00:49:05;5.32;;;4.85;;
30519;SDS011;17300;50.374;8.006;2023-08-21T00:51:32;5.55;;;5.05;;
30519;SDS011;17300;50.374;8.006;2023-08-21T00:54:00;5.20;;;4.80;;
30519;SDS011;17300;50.374;8.006;2023-08-21T00:56:27;5.18;;;4.78;;
30519;SDS011;17300;50.374;8.006;2023-08-21T00:58:54;5.07;;;4.68;;
30519;SDS011;17300;50.374;8.006;2023-08-21T01:01:21;5.03;;;4.65;;
30519;SDS011;17300;50.374;8.006;2023-08-21T01:03:49;5.15;;;4.70;;
30519;SDS011;17300;50.374;8.006;2023-08-21T01:06:16;5.40;;;4.90;;
30519;SDS011;17300;50.374;8.006;2023-08-21T01:08:46;5.65;;;5.15;;
30519;SDS011;17300;50.374;8.006;2023-08-21T01:11:21;5.28;;;4.80;;
30519;SDS011;17300;50.374;8.006;2023-08-21T01:13:59;5.50;;;4.90;;
30519;SDS011;17300;50.374;8.006;2023-08-21T01:16:39;5.20;;;4.80;;
30519;SDS011;17300;50.374;8.006;2023-08-21T01:19:09;4.70;;;4.40;;
30519;SDS011;17300;50.374;8.006;2023-08-21T01:21:44;4.95;;;4.65;;
30519;SDS011;17300;50.374;8.006;2023-08-21T01:24:12;5.30;;;4.80;;
30519;SDS011;17300;50.374;8.006;2023-08-21T01:26:39;5.05;;;4.70;;
30519;SDS011;17300;50.374;8.006;2023-08-21T01:29:06;5.43;;;4.93;;
30519;SDS011;17300;50.374;8.006;2023-08-21T01:31:33;5.47;;;5.00;;
30519;SDS011;17300;50.374;8.006;2023-08-21T01:34:04;5.32;;;4.82;;
30519;SDS011;17300;50.374;8.006;2023-08-21T01:36:34;5.78;;;5.28;;
30519;SDS011;17300;50.374;8.006;2023-08-21T01:39:01;5.30;;;4.90;;
30519;SDS011;17300;50.374;8.006;2023-08-21T01:41:30;5.03;;;4.63;;
30519;SDS011;17300;50.374;8.006;2023-08-21T01:43:56;5.53;;;5.03;;
30519;SDS011;17300;50.374;8.006;2023-08-21T01:46:23;5.57;;;5.18;;
30519;SDS011;17300;50.374;8.006;2023-08-21T01:48:49;5.22;;;4.78;;
30519;SDS011;17300;50.374;8.006;2023-08-21T01:51:16;5.65;;;5.15;;
30519;SDS011;17300;50.374;8.006;2023-08-21T01:53:43;5.40;;;4.90;;
30519;SDS011;17300;50.374;8.006;2023-08-21T01:56:09;5.75;;;5.25;;
30519;SDS011;17300;50.374;8.006;2023-08-21T01:58:37;5.18;;;4.78;;
30519;SDS011;17300;50.374;8.006;2023-08-21T02:01:04;5.68;;;5.18;;
30519;SDS011;17300;50.374;8.006;2023-08-21T02:03:31;5.30;;;4.80;;
30519;SDS011;17300;50.374;8.006;2023-08-21T02:05:57;5.55;;;5.05;;
30519;SDS011;17300;50.374;8.006;2023-08-21T02:08:26;5.47;;;5.05;;
30519;SDS011;17300;50.374;8.006;2023-08-21T02:10:56;5.25;;;4.85;;
30519;SDS011;17300;50.374;8.006;2023-08-21T02:13:23;5.93;;;5.43;;
30519;SDS011;17300;50.374;8.006;2023-08-21T02:15:51;5.25;;;4.85;;
30519;SDS011;17300;50.374;8.006;2023-08-21T02:18:18;5.88;;;5.00;;
30519;SDS011;17300;50.374;8.006;2023-08-21T02:20:44;5.45;;;5.05;;
30519;SDS011;17300;50.374;8.006;2023-08-21T02:23:13;5.63;;;5.13;;
30519;SDS011;17300;50.374;8.006;2023-08-21T02:25:40;5.55;;;5.15;;
30519;SDS011;17300;50.374;8.006;2023-08-21T02:28:07;5.38;;;4.90;;
30519;SDS011;17300;50.374;8.006;2023-08-21T02:30:33;5.72;;;5.28;;
30519;SDS011;17300;50.374;8.006;2023-08-21T02:33:01;5.75;;;5.20;;
30519;SDS011;17300;50.374;8.006;2023-08-21T02:35:28;5.70;;;5.20;;
30519;SDS011;17300;50.374;8.006;2023-08-21T02:37:55;5.38;;;4.88;;
30519;SDS011;17300;50.374;8.006;2023-08-21T02:40:22;5.28;;;4.88;;
30519;SDS011;17300;50.374;8.006;2023-08-21T02:42:48;5.38;;;4.95;;
30519;SDS011;17300;50.374;8.006;2023-08-21T02:45:15;5.30;;;4.88;;
30519;SDS011;17300;50.374;8.006;2023-08-21T02:47:42;5.20;;;4.80;;
30519;SDS011;17300;50.374;8.006;2023-08-21T02:50:10;5.00;;;4.70;;
30519;SDS011;17300;50.374;8.006;2023-08-21T02:52:37;8.55;;;5.35;;
30519;SDS011;17300;50.374;8.006;2023-08-21T02:55:04;5.60;;;5.10;;
30519;SDS011;17300;50.374;8.006;2023-08-21T02:57:32;5.03;;;4.63;;
30519;SDS011;17300;50.374;8.006;2023-08-21T02:59:58;5.15;;;4.65;;
30519;SDS011;17300;50.374;8.006;2023-08-21T03:02:25;5.80;;;5.20;;
30519;SDS011;17300;50.374;8.006;2023-08-21T03:04:52;5.72;;;5.25;;
30519;SDS011;17300;50.374;8.006;2023-08-21T03:07:20;5.15;;;4.70;;
30519;SDS011;17300;50.374;8.006;2023-08-21T03:09:47;5.22;;;4.82;;
30519;SDS011;17300;50.374;8.006;2023-08-21T03:12:14;5.82;;;5.32;;
30519;SDS011;17300;50.374;8.006;2023-08-21T03:14:40;5.47;;;5.07;;
30519;SDS011;17300;50.374;8.006;2023-08-21T03:17:07;6.07;;;4.97;;
30519;SDS011;17300;50.374;8.006;2023-08-21T03:19:34;4.93;;;4.60;;
30519;SDS011;17300;50.374;8.006;2023-08-21T03:22:01;5.32;;;4.82;;
30519;SDS011;17300;50.374;8.006;2023-08-21T03:24:29;5.53;;;5.05;;
30519;SDS011;17300;50.374;8.006;2023-08-21T03:26:55;5.50;;;5.00;;
30519;SDS011;17300;50.374;8.006;2023-08-21T03:29:22;6.28;;;5.10;;
30519;SDS011;17300;50.374;8.006;2023-08-21T03:31:49;5.07;;;4.70;;
30519;SDS011;17300;50.374;8.006;2023-08-21T03:34:16;5.32;;;4.78;;
30519;SDS011;17300;50.374;8.006;2023-08-21T03:36:43;5.10;;;4.78;;
30519;SDS011;17300;50.374;8.006;2023-08-21T03:39:09;5.30;;;4.85;;
30519;SDS011;17300;50.374;8.006;2023-08-21T03:41:37;5.25;;;4.85;;
30519;SDS011;17300;50.374;8.006;2023-08-21T03:44:04;5.43;;;5.00;;
30519;SDS011;17300;50.374;8.006;2023-08-21T03:46:31;5.70;;;5.20;;
30519;SDS011;17300;50.374;8.006;2023-08-21T03:48:57;5.68;;;5.18;;
30519;SDS011;17300;50.374;8.006;2023-08-21T03:51:24;5.38;;;4.97;;
30519;SDS011;17300;50.374;8.006;2023-08-21T03:53:51;5.22;;;4.82;;
30519;SDS011;17300;50.374;8.006;2023-08-21T03:56:17;5.40;;;5.00;;
30519;SDS011;17300;50.374;8.006;2023-08-21T03:58:45;5.20;;;4.80;;
30519;SDS011;17300;50.374;8.006;2023-08-21T04:01:13;5.18;;;4.78;;
30519;SDS011;17300;50.374;8.006;2023-08-21T04:03:40;6.20;;;5.22;;
30519;SDS011;17300;50.374;8.006;2023-08-21T04:06:06;5.70;;;5.20;;
30519;SDS011;17300;50.374;8.006;2023-08-21T04:08:33;5.90;;;5.40;;
30519;SDS011;17300;50.374;8.006;2023-08-21T04:10:59;5.45;;;4.97;;
30519;SDS011;17300;50.374;8.006;2023-08-21T04:13:27;5.45;;;5.05;;
30519;SDS011;17300;50.374;8.006;2023-08-21T04:15:55;6.57;;;5.32;;
30519;SDS011;17300;50.374;8.006;2023-08-21T04:18:21;5.70;;;4.72;;
30519;SDS011;17300;50.374;8.006;2023-08-21T04:20:48;5.78;;;5.28;;
30519;SDS011;17300;50.374;8.006;2023-08-21T04:23:15;6.00;;;5.30;;
30519;SDS011;17300;50.374;8.006;2023-08-21T04:25:42;5.50;;;4.93;;
30519;SDS011;17300;50.374;8.006;2023-08-21T04:28:09;5.40;;;4.93;;
30519;SDS011;17300;50.374;8.006;2023-08-21T04:30:36;5.27;;;4.87;;
30519;SDS011;17300;50.374;8.006;2023-08-21T04:33:04;5.60;;;5.10;;
30519;SDS011;17300;50.374;8.006;2023-08-21T04:35:35;5.60;;;5.20;;
30519;SDS011;17300;50.374;8.006;2023-08-21T04:38:03;5.93;;;5.03;;
30519;SDS011;17300;50.374;8.006;2023-08-21T04:40:30;5.27;;;4.63;;
30519;SDS011;17300;50.374;8.006;2023-08-21T04:42:56;6.07;;;5.57;;
30519;SDS011;17300;50.374;8.006;2023-08-21T04:45:23;5.40;;;5.00;;
30519;SDS011;17300;50.374;8.006;2023-08-21T04:47:50;5.60;;;5.03;;
30519;SDS011;17300;50.374;8.006;2023-08-21T04:50:18;5.78;;;5.28;;
30519;SDS011;17300;50.374;8.006;2023-08-21T04:52:45;6.03;;;5.30;;
30519;SDS011;17300;50.374;8.006;2023-08-21T04:55:11;6.20;;;5.60;;
30519;SDS011;17300;50.374;8.006;2023-08-21T04:57:38;5.65;;;5.25;;
30519;SDS011;17300;50.374;8.006;2023-08-21T05:00:05;5.60;;;5.13;;
30519;SDS011;17300;50.374;8.006;2023-08-21T05:02:34;6.63;;;5.40;;
30519;SDS011;17300;50.374;8.006;2023-08-21T05:05:01;5.75;;;5.28;;
30519;SDS011;17300;50.374;8.006;2023-08-21T05:07:29;5.23;;;4.83;;
30519;SDS011;17300;50.374;8.006;2023-08-21T05:09:58;5.60;;;5.10;;
30519;SDS011;17300;50.374;8.006;2023-08-21T05:12:25;6.57;;;5.53;;
30519;SDS011;17300;50.374;8.006;2023-08-21T05:14:52;5.55;;;5.15;;
30519;SDS011;17300;50.374;8.006;2023-08-21T05:17:19;5.60;;;5.20;;
30519;SDS011;17300;50.374;8.006;2023-08-21T05:19:46;5.78;;;5.35;;
30519;SDS011;17300;50.374;8.006;2023-08-21T05:22:12;5.50;;;5.10;;
30519;SDS011;17300;50.374;8.006;2023-08-21T05:24:40;6.10;;;5.15;;
30519;SDS011;17300;50.374;8.006;2023-08-21T05:27:07;5.70;;;4.97;;
30519;SDS011;17300;50.374;8.006;2023-08-21T05:29:34;5.97;;;5.57;;
30519;SDS011;17300;50.374;8.006;2023-08-21T05:32:00;5.45;;;5.05;;
30519;SDS011;17300;50.374;8.006;2023-08-21T05:34:27;5.97;;;5.57;;
30519;SDS011;17300;50.374;8.006;2023-08-21T05:36:54;6.05;;;5.45;;
30519;SDS011;17300;50.374;8.006;2023-08-21T05:39:20;5.85;;;5.35;;
30519;SDS011;17300;50.374;8.006;2023-08-21T05:41:48;5.50;;;5.10;;
30519;SDS011;17300;50.374;8.006;2023-08-21T05:44:15;5.22;;;4.82;;
30519;SDS011;17300;50.374;8.006;2023-08-21T05:46:42;5.18;;;4.78;;
30519;SDS011;17300;50.374;8.006;2023-08-21T05:49:08;4.97;;;4.57;;
30519;SDS011;17300;50.374;8.006;2023-08-21T05:51:35;5.32;;;4.93;;
30519;SDS011;17300;50.374;8.006;2023-08-21T05:54:02;4.72;;;4.40;;
30519;SDS011;17300;50.374;8.006;2023-08-21T05:56:28;4.80;;;4.40;;
30519;SDS011;17300;50.374;8.006;2023-08-21T05:58:56;5.22;;;4.75;;
30519;SDS011;17300;50.374;8.006;2023-08-21T06:01:23;5.50;;;4.78;;
30519;SDS011;17300;50.374;8.006;2023-08-21T06:03:50;4.32;;;4.00;;
30519;SDS011;17300;50.374;8.006;2023-08-21T06:06:16;4.85;;;4.45;;
30519;SDS011;17300;50.374;8.006;2023-08-21T06:08:43;4.63;;;4.32;;
30519;SDS011;17300;50.374;8.006;2023-08-21T06:11:09;4.53;;;4.13;;
30519;SDS011;17300;50.374;8.006;2023-08-21T06:13:36;4.43;;;4.07;;
30519;SDS011;17300;50.374;8.006;2023-08-21T06:16:04;4.50;;;4.18;;
30519;SDS011;17300;50.374;8.006;2023-08-21T06:18:31;5.22;;;4.47;;
30519;SDS011;17300;50.374;8.006;2023-08-21T06:20:58;6.45;;;4.43;;
30519;SDS011;17300;50.374;8.006;2023-08-21T06:23:24;5.20;;;4.55;;
30519;SDS011;17300;50.374;8.006;2023-08-21T06:25:51;4.68;;;4.28;;
30519;SDS011;17300;50.374;8.006;2023-08-21T06:28:17;5.05;;;4.28;;
30519;SDS011;17300;50.374;8.006;2023-08-21T06:30:44;4.38;;;4.03;;
30519;SDS011;17300;50.374;8.006;2023-08-21T06:33:12;5.05;;;4.57;;
30519;SDS011;17300;50.374;8.006;2023-08-21T06:35:39;5.60;;;4.00;;
30519;SDS011;17300;50.374;8.006;2023-08-21T06:38:06;4.10;;;3.80;;
30519;SDS011;17300;50.374;8.006;2023-08-21T06:40:32;4.18;;;3.85;;
30519;SDS011;17300;50.374;8.006;2023-08-21T06:42:59;4.07;;;3.78;;
30519;SDS011;17300;50.374;8.006;2023-08-21T06:45:26;4.07;;;3.80;;
30519;SDS011;17300;50.374;8.006;2023-08-21T06:47:55;4.57;;;4.22;;
30519;SDS011;17300;50.374;8.006;2023-08-21T06:50:23;4.40;;;4.00;;
30519;SDS011;17300;50.374;8.006;2023-08-21T06:52:50;4.53;;;4.07;;
30519;SDS011;17300;50.374;8.006;2023-08-21T06:55:16;3.97;;;3.67;;
30519;SDS011;17300;50.374;8.006;2023-08-21T06:57:43;4.18;;;3.78;;
30519;SDS011;17300;50.374;8.006;2023-08-21T07:00:10;4.00;;;3.60;;
30519;SDS011;17300;50.374;8.006;2023-08-21T07:02:37;4.20;;;3.80;;
30519;SDS011;17300;50.374;8.006;2023-08-21T07:05:04;4.80;;;3.58;;
30519;SDS011;17300;50.374;8.006;2023-08-21T07:07:34;3.83;;;3.53;;
30519;SDS011;17300;50.374;8.006;2023-08-21T07:10:01;4.18;;;3.78;;
30519;SDS011;17300;50.374;8.006;2023-08-21T07:12:28;4.10;;;3.38;;
30519;SDS011;17300;50.374;8.006;2023-08-21T07:14:55;4.25;;;3.53;;
30519;SDS011;17300;50.374;8.006;2023-08-21T07:17:22;3.60;;;3.30;;
30519;SDS011;17300;50.374;8.006;2023-08-21T07:19:49;3.75;;;3.38;;
30519;SDS011;17300;50.374;8.006;2023-08-21T07:22:17;3.88;;;3.58;;
30519;SDS011;17300;50.374;8.006;2023-08-21T07:24:46;3.90;;;3.58;;
30519;SDS011;17300;50.374;8.006;2023-08-21T07:27:12;4.20;;;3.58;;
30519;SDS011;17300;50.374;8.006;2023-08-21T07:29:39;4.57;;;3.85;;
30519;SDS011;17300;50.374;8.006;2023-08-21T07:32:06;3.65;;;3.35;;
30519;SDS011;17300;50.374;8.006;2023-08-21T07:34:32;3.63;;;3.33;;
30519;SDS011;17300;50.374;8.006;2023-08-21T07:36:59;3.38;;;3.08;;
30519;SDS011;17300;50.374;8.006;2023-08-21T07:39:26;4.10;;;3.80;;
30519;SDS011;17300;50.374;8.006;2023-08-21T07:41:54;3.88;;;3.58;;
30519;SDS011;17300;50.374;8.006;2023-08-21T07:44:20;3.88;;;3.60;;
30519;SDS011;17300;50.374;8.006;2023-08-21T07:46:47;3.28;;;3.08;;
30519;SDS011;17300;50.374;8.006;2023-08-21T07:49:13;3.60;;;3.40;;
30519;SDS011;17300;50.374;8.006;2023-08-21T07:51:40;3.58;;;3.28;;
30519;SDS011;17300;50.374;8.006;2023-08-21T07:54:07;3.40;;;3.10;;
30519;SDS011;17300;50.374;8.006;2023-08-21T07:56:33;4.88;;;3.25;;
30519;SDS011;17300;50.374;8.006;2023-08-21T07:59:02;3.30;;;3.10;;
30519;SDS011;17300;50.374;8.006;2023-08-21T08:01:29;3.03;;;2.83;;
30519;SDS011;17300;50.374;8.006;2023-08-21T08:03:56;3.60;;;3.30;;
30519;SDS011;17300;50.374;8.006;2023-08-21T08:06:22;4.30;;;3.40;;
30519;SDS011;17300;50.374;8.006;2023-08-21T08:08:49;3.47;;;3.17;;
30519;SDS011;17300;50.374;8.006;2023-08-21T08:11:16;3.40;;;3.10;;
30519;SDS011;17300;50.374;8.006;2023-08-21T08:13:42;3.70;;;3.40;;
30519;SDS011;17300;50.374;8.006;2023-08-21T08:16:10;4.55;;;3.15;;
30519;SDS011;17300;50.374;8.006;2023-08-21T08:18:37;4.15;;;3.30;;
30519;SDS011;17300;50.374;8.006;2023-08-21T08:21:04;3.60;;;3.08;;
30519;SDS011;17300;50.374;8.006;2023-08-21T08:23:31;3.22;;;2.92;;
30519;SDS011;17300;50.374;8.006;2023-08-21T08:25:57;3.47;;;3.17;;
30519;SDS011;17300;50.374;8.006;2023-08-21T08:28:24;3.45;;;3.15;;
30519;SDS011;17300;50.374;8.006;2023-08-21T08:30:51;3.28;;;3.00;;
30519;SDS011;17300;50.374;8.006;2023-08-21T08:33:19;2.88;;;2.67;;
30519;SDS011;17300;50.374;8.006;2023-08-21T08:35:45;3.38;;;3.15;;
30519;SDS011;17300;50.374;8.006;2023-08-21T08:38:12;3.20;;;3.00;;
30519;SDS011;17300;50.374;8.006;2023-08-21T08:40:42;3.25;;;3.00;;
30519;SDS011;17300;50.374;8.006;2023-08-21T08:43:10;3.63;;;3.22;;
30519;SDS011;17300;50.374;8.006;2023-08-21T08:45:38;3.10;;;2.90;;
30519;SDS011;17300;50.374;8.006;2023-08-21T08:48:06;3.30;;;3.10;;
30519;SDS011;17300;50.374;8.006;2023-08-21T08:50:34;3.42;;;2.83;;
30519;SDS011;17300;50.374;8.006;2023-08-21T08:53:04;3.90;;;3.05;;
30519;SDS011;17300;50.374;8.006;2023-08-21T08:55:32;3.20;;;3.00;;
30519;SDS011;17300;50.374;8.006;2023-08-21T08:57:59;3.35;;;3.05;;
30519;SDS011;17300;50.374;8.006;2023-08-21T09:00:26;3.33;;;3.03;;
30519;SDS011;17300;50.374;8.006;2023-08-21T09:02:52;3.70;;;3.47;;
30519;SDS011;17300;50.374;8.006;2023-08-21T09:05:21;3.50;;;3.20;;
30519;SDS011;17300;50.374;8.006;2023-08-21T09:07:59;3.22;;;3.00;;
30519;SDS011;17300;50.374;8.006;2023-08-21T09:10:29;3.42;;;3.13;;
30519;SDS011;17300;50.374;8.006;2023-08-21T09:12:55;5.40;;;3.05;;
30519;SDS011;17300;50.374;8.006;2023-08-21T09:15:27;3.22;;;2.92;;
30519;SDS011;17300;50.374;8.006;2023-08-21T09:17:54;3.17;;;2.88;;
30519;SDS011;17300;50.374;8.006;2023-08-21T09:20:21;2.90;;;2.70;;
30519;SDS011;17300;50.374;8.006;2023-08-21T09:22:52;3.00;;;2.80;;
30519;SDS011;17300;50.374;8.006;2023-08-21T09:25:23;3.30;;;3.00;;
30519;SDS011;17300;50.374;8.006;2023-08-21T09:27:51;3.20;;;2.90;;
30519;SDS011;17300;50.374;8.006;2023-08-21T09:30:19;2.97;;;2.78;;
30519;SDS011;17300;50.374;8.006;2023-08-21T09:32:52;3.10;;;2.85;;
30519;SDS011;17300;50.374;8.006;2023-08-21T09:35:20;3.40;;;3.10;;
30519;SDS011;17300;50.374;8.006;2023-08-21T09:37:47;2.90;;;2.70;;
30519;SDS011;17300;50.374;8.006;2023-08-21T09:40:14;3.25;;;2.95;;
30519;SDS011;17300;50.374;8.006;2023-08-21T09:42:43;3.00;;;2.80;;
30519;SDS011;17300;50.374;8.006;2023-08-21T09:45:09;4.07;;;3.33;;
30519;SDS011;17300;50.374;8.006;2023-08-21T09:47:37;2.85;;;2.65;;
30519;SDS011;17300;50.374;8.006;2023-08-21T09:50:05;3.10;;;2.90;;
30519;SDS011;17300;50.374;8.006;2023-08-21T09:52:32;2.85;;;2.65;;
30519;SDS011;17300;50.374;8.006;2023-08-21T09:55:00;3.00;;;2.80;;
30519;SDS011;17300;50.374;8.006;2023-08-21T09:57:29;2.85;;;2.70;;
30519;SDS011;17300;50.374;8.006;2023-08-21T09:59:59;3.20;;;3.00;;
30519;SDS011;17300;50.374;8.006;2023-08-21T10:02:30;3.13;;;2.92;;
30519;SDS011;17300;50.374;8.006;2023-08-21T10:04:58;2.72;;;2.60;;
30519;SDS011;17300;50.374;8.006;2023-08-21T10:07:26;3.47;;;3.17;;
30519;SDS011;17300;50.374;8.006;2023-08-21T10:09:54;3.10;;;2.90;;
30519;SDS011;17300;50.374;8.006;2023-08-21T10:12:22;3.22;;;3.03;;
30519;SDS011;17300;50.374;8.006;2023-08-21T10:14:50;3.42;;;2.95;;
30519;SDS011;17300;50.374;8.006;2023-08-21T10:17:18;3.13;;;2.83;;
30519;SDS011;17300;50.374;8.006;2023-08-21T10:19:50;3.33;;;2.70;;
30519;SDS011;17300;50.374;8.006;2023-08-21T10:25:04;2.80;;;2.60;;
30519;SDS011;17300;50.374;8.006;2023-08-21T10:27:40;3.08;;;2.67;;
30519;SDS011;17300;50.374;8.006;2023-08-21T10:30:12;2.25;;;2.15;;
30519;SDS011;17300;50.374;8.006;2023-08-21T10:32:45;2.60;;;2.47;;
30519;SDS011;17300;50.374;8.006;2023-08-21T10:35:17;2.78;;;2.17;;
30519;SDS011;17300;50.374;8.006;2023-08-21T10:40:35;3.15;;;2.85;;
30519;SDS011;17300;50.374;8.006;2023-08-21T10:43:03;2.30;;;2.20;;
30519;SDS011;17300;50.374;8.006;2023-08-21T10:45:30;2.40;;;2.13;;
30519;SDS011;17300;50.374;8.006;2023-08-21T10:47:58;2.15;;;2.03;;
30519;SDS011;17300;50.374;8.006;2023-08-21T10:50:26;1.90;;;1.80;;
30519;SDS011;17300;50.374;8.006;2023-08-21T10:52:53;2.13;;;2.03;;
30519;SDS011;17300;50.374;8.006;2023-08-21T10:55:20;1.92;;;1.83;;
30519;SDS011;17300;50.374;8.006;2023-08-21T10:57:47;2.03;;;1.88;;
30519;SDS011;17300;50.374;8.006;2023-08-21T11:00:15;2.40;;;2.20;;
30519;SDS011;17300;50.374;8.006;2023-08-21T11:02:44;2.25;;;2.05;;
30519;SDS011;17300;50.374;8.006;2023-08-21T11:05:13;1.80;;;1.70;;
30519;SDS011;17300;50.374;8.006;2023-08-21T11:07:41;2.05;;;1.50;;
30519;SDS011;17300;50.374;8.006;2023-08-21T11:10:10;1.98;;;1.75;;
30519;SDS011;17300;50.374;8.006;2023-08-21T11:12:38;2.22;;;1.90;;
30519;SDS011;17300;50.374;8.006;2023-08-21T11:15:13;2.08;;;1.88;;
30519;SDS011;17300;50.374;8.006;2023-08-21T11:17:41;2.25;;;1.88;;
30519;SDS011;17300;50.374;8.006;2023-08-21T11:20:08;2.80;;;2.20;;
30519;SDS011;17300;50.374;8.006;2023-08-21T11:22:36;2.72;;;2.53;;
30519;SDS011;17300;50.374;8.006;2023-08-21T11:25:03;2.00;;;1.90;;
30519;SDS011;17300;50.374;8.006;2023-08-21T11:27:30;2.53;;;1.90;;
30519;SDS011;17300;50.374;8.006;2023-08-21T11:29:57;2.10;;;1.90;;
30519;SDS011;17300;50.374;8.006;2023-08-21T11:32:24;2.00;;;1.90;;
30519;SDS011;17300;50.374;8.006;2023-08-21T11:34:51;3.05;;;2.17;;
30519;SDS011;17300;50.374;8.006;2023-08-21T11:37:19;2.30;;;1.98;;
30519;SDS011;17300;50.374;8.006;2023-08-21T11:39:49;1.98;;;1.88;;
30519;SDS011;17300;50.374;8.006;2023-08-21T11:42:18;2.80;;;2.00;;
30519;SDS011;17300;50.374;8.006;2023-08-21T11:44:46;2.60;;;2.00;;
30519;SDS011;17300;50.374;8.006;2023-08-21T11:47:14;1.88;;;1.77;;
30519;SDS011;17300;50.374;8.006;2023-08-21T11:49:41;1.85;;;1.75;;
30519;SDS011;17300;50.374;8.006;2023-08-21T11:52:10;1.83;;;1.73;;
30519;SDS011;17300;50.374;8.006;2023-08-21T11:54:37;1.80;;;1.70;;
30519;SDS011;17300;50.374;8.006;2023-08-21T11:57:07;1.98;;;1.88;;
30519;SDS011;17300;50.374;8.006;2023-08-21T11:59:38;1.60;;;1.50;;
30519;SDS011;17300;50.374;8.006;2023-08-21T12:02:09;2.20;;;1.45;;
30519;SDS011;17300;50.374;8.006;2023-08-21T12:04:36;1.60;;;1.50;;
30519;SDS011;17300;50.374;8.006;2023-08-21T12:07:03;2.10;;;1.70;;
30519;SDS011;17300;50.374;8.006;2023-08-21T12:09:30;2.33;;;1.48;;
30519;SDS011;17300;50.374;8.006;2023-08-21T12:11:57;1.83;;;1.73;;
30519;SDS011;17300;50.374;8.006;2023-08-21T12:14:28;1.98;;;1.85;;
30519;SDS011;17300;50.374;8.006;2023-08-21T12:16:55;2.03;;;1.92;;
30519;SDS011;17300;50.374;8.006;2023-08-21T12:19:22;1.90;;;1.70;;
30519;SDS011;17300;50.374;8.006;2023-08-21T12:21:49;1.63;;;1.52;;
30519;SDS011;17300;50.374;8.006;2023-08-21T12:24:16;3.00;;;1.77;;
30519;SDS011;17300;50.374;8.006;2023-08-21T12:26:43;2.00;;;1.90;;
30519;SDS011;17300;50.374;8.006;2023-08-21T12:29:09;2.28;;;1.90;;
30519;SDS011;17300;50.374;8.006;2023-08-21T12:31:37;1.90;;;1.80;;
30519;SDS011;17300;50.374;8.006;2023-08-21T12:34:04;2.05;;;1.85;;
30519;SDS011;17300;50.374;8.006;2023-08-21T12:36:31;2.08;;;1.88;;
30519;SDS011;17300;50.374;8.006;2023-08-21T12:39:00;2.13;;;1.73;;
30519;SDS011;17300;50.374;8.006;2023-08-21T12:41:28;1.60;;;1.50;;
30519;SDS011;17300;50.374;8.006;2023-08-21T12:43:55;1.75;;;1.65;;
30519;SDS011;17300;50.374;8.006;2023-08-21T12:46:21;1.70;;;1.60;;
30519;SDS011;17300;50.374;8.006;2023-08-21T12:48:50;1.83;;;1.73;;
30519;SDS011;17300;50.374;8.006;2023-08-21T12:51:16;1.67;;;1.58;;
30519;SDS011;17300;50.374;8.006;2023-08-21T12:53:43;1.73;;;1.60;;
30519;SDS011;17300;50.374;8.006;2023-08-21T12:56:10;2.50;;;2.35;;
30519;SDS011;17300;50.374;8.006;2023-08-21T12:58:36;1.70;;;1.60;;
30519;SDS011;17300;50.374;8.006;2023-08-21T13:01:03;1.83;;;1.50;;
30519;SDS011;17300;50.374;8.006;2023-08-21T13:03:30;1.70;;;1.60;;
30519;SDS011;17300;50.374;8.006;2023-08-21T13:06:00;1.65;;;1.45;;
30519;SDS011;17300;50.374;8.006;2023-08-21T13:08:27;1.70;;;1.60;;
30519;SDS011;17300;50.374;8.006;2023-08-21T13:10:54;2.10;;;1.90;;
30519;SDS011;17300;50.374;8.006;2023-08-21T13:13:20;1.88;;;1.77;;
30519;SDS011;17300;50.374;8.006;2023-08-21T13:15:47;1.70;;;1.60;;
30519;SDS011;17300;50.374;8.006;2023-08-21T13:18:15;1.90;;;1.80;;
30519;SDS011;17300;50.374;8.006;2023-08-21T13:20:42;1.80;;;1.70;;
30519;SDS011;17300;50.374;8.006;2023-08-21T13:23:10;2.38;;;2.17;;
30519;SDS011;17300;50.374;8.006;2023-08-21T13:25:37;1.73;;;1.63;;
30519;SDS011;17300;50.374;8.006;2023-08-21T13:28:03;2.13;;;1.92;;
30519;SDS011;17300;50.374;8.006;2023-08-21T13:30:30;2.00;;;1.90;;
30519;SDS011;17300;50.374;8.006;2023-08-21T13:32:57;1.90;;;1.80;;
30519;SDS011;17300;50.374;8.006;2023-08-21T13:35:24;1.90;;;1.80;;
30519;SDS011;17300;50.374;8.006;2023-08-21T13:37:50;2.00;;;1.90;;
30519;SDS011;17300;50.374;8.006;2023-08-21T13:40:19;2.05;;;1.95;;
30519;SDS011;17300;50.374;8.006;2023-08-21T13:42:47;2.70;;;1.92;;
30519;SDS011;17300;50.374;8.006;2023-08-21T13:45:14;3.25;;;2.15;;
30519;SDS011;17300;50.374;8.006;2023-08-21T13:47:42;1.88;;;1.75;;
30519;SDS011;17300;50.374;8.006;2023-08-21T13:50:11;2.20;;;2.05;;
30519;SDS011;17300;50.374;8.006;2023-08-21T13:52:38;2.70;;;1.80;;
30519;SDS011;17300;50.374;8.006;2023-08-21T13:55:05;2.60;;;2.40;;
30519;SDS011;17300;50.374;8.006;2023-08-21T13:57:35;2.00;;;1.80;;
30519;SDS011;17300;50.374;8.006;2023-08-21T14:03:37;3.50;;;2.45;;
30519;SDS011;17300;50.374;8.006;2023-08-21T14:06:04;2.30;;;2.10;;
30519;SDS011;17300;50.374;8.006;2023-08-21T14:08:31;2.47;;;2.28;;
30519;SDS011;17300;50.374;8.006;2023-08-21T14:10:59;2.15;;;2.00;;
30519;SDS011;17300;50.374;8.006;2023-08-21T14:13:33;2.10;;;1.90;;
30519;SDS011;17300;50.374;8.006;2023-08-21T14:16:04;2.38;;;2.17;;
30519;SDS011;17300;50.374;8.006;2023-08-21T14:18:31;3.15;;;2.00;;
30519;SDS011;17300;50.374;8.006;2023-08-21T14:20:57;4.05;;;2.40;;
30519;SDS011;17300;50.374;8.006;2023-08-21T14:23:24;2.97;;;2.15;;
30519;SDS011;17300;50.374;8.006;2023-08-21T14:25:51;3.55;;;2.25;;
30519;SDS011;17300;50.374;8.006;2023-08-21T14:28:18;2.50;;;2.30;;
30519;SDS011;17300;50.374;8.006;2023-08-21T14:30:46;2.50;;;2.30;;
30519;SDS011;17300;50.374;8.006;2023-08-21T14:33:12;2.63;;;2.42;;
30519;SDS011;17300;50.374;8.006;2023-08-21T14:35:39;2.22;;;2.13;;
30519;SDS011;17300;50.374;8.006;2023-08-21T14:38:06;2.72;;;2.33;;
30519;SDS011;17300;50.374;8.006;2023-08-21T14:40:32;2.50;;;2.40;;
30519;SDS011;17300;50.374;8.006;2023-08-21T14:42:59;2.42;;;2.22;;
30519;SDS011;17300;50.374;8.006;2023-08-21T14:45:26;2.40;;;2.30;;
30519;SDS011;17300;50.374;8.006;2023-08-21T14:47:54;2.88;;;2.67;;
30519;SDS011;17300;50.374;8.006;2023-08-21T14:50:21;2.47;;;2.30;;
30519;SDS011;17300;50.374;8.006;2023-08-21T14:52:47;2.50;;;2.30;;
30519;SDS011;17300;50.374;8.006;2023-08-21T14:55:14;2.58;;;2.38;;
30519;SDS011;17300;50.374;8.006;2023-08-21T14:57:41;2.33;;;2.13;;